Time;durP1;ratioP1;P1;durP2;ratioP2;P2;SDS_P1;SDS_P2;PMS_P1;PMS_P2;Temp;Humidity;BMP_temperature;BMP_pressure;BME280_temperature;BME280_humidity;BME280_pressure;Samples;Min_cycle;Max_cycle;Signal;HPM_P1;HPM_P2
2023/03/11 00:00:28;;;;;;;8.93;6.47;;;;;;;11.05;100.00;92706.53;5071162;28;20246;-57
2023/03/11 00:02:55;;;;;;;13.77;7.97;;;;;;;10.58;100.00;92709.53;5071053;28;20215;-59
2023/03/11 00:05:32;;;;;;;12.33;8.13;;;;;;;10.49;100.00;92696.13;5070796;28;20219;-58
2023/03/11 00:07:59;;;;;;;10.93;8.43;;;;;;;10.51;100.00;92724.69;5071091;28;20195;-58
2023/03/11 00:10:30;;;;;;;12.23;8.63;;;;;;;10.46;100.00;92726.97;5070882;28;20219;-56
2023/03/11 00:12:57;;;;;;;10.23;8.03;;;;;;;10.37;100.00;92722.13;5070778;28;20204;-54
2023/03/11 00:15:23;;;;;;;8.83;6.20;;;;;;;10.56;100.00;92691.91;5070866;28;20670;-54
2023/03/11 00:17:49;;;;;;;4.93;4.03;;;;;;;10.40;100.00;92688.78;5070760;28;20203;-54
2023/03/11 00:20:27;;;;;;;3.43;2.67;;;;;;;9.80;100.00;92674.47;5070727;28;20220;-53
2023/03/11 00:22:53;;;;;;;3.03;2.40;;;;;;;10.28;100.00;92703.66;5070688;28;20188;-53
2023/03/11 00:25:20;;;;;;;2.47;1.90;;;;;;;10.34;100.00;92709.81;5070579;28;20383;-54
2023/03/11 00:27:46;;;;;;;1.53;1.43;;;;;;;10.34;100.00;92702.97;5070983;28;20203;-55
2023/03/11 00:30:13;;;;;;;1.70;1.20;;;;;;;9.97;100.00;92711.44;5070954;28;20204;-54
2023/03/11 00:32:39;;;;;;;1.60;1.30;;;;;;;9.83;100.00;92694.44;5070573;28;20744;-53
2023/03/11 00:35:06;;;;;;;1.63;1.00;;;;;;;9.89;100.00;92698.03;5070812;28;20213;-54
2023/03/11 00:37:32;;;;;;;1.00;0.90;;;;;;;9.93;100.00;92689.91;5070354;28;20196;-53
2023/03/11 00:39:59;;;;;;;1.40;1.07;;;;;;;9.78;100.00;92673.88;5070663;28;20219;-54
2023/03/11 00:42:24;;;;;;;1.00;0.80;;;;;;;9.68;100.00;92680.16;5070393;28;20314;-54
2023/03/11 00:44:50;;;;;;;1.10;0.70;;;;;;;9.60;100.00;92685.28;5070487;28;20734;-58
2023/03/11 00:47:15;;;;;;;1.27;0.60;;;;;;;9.50;100.00;92685.53;5070539;28;20185;-53
2023/03/11 00:49:41;;;;;;;1.17;0.83;;;;;;;9.64;100.00;92694.13;5070300;28;20208;-53
2023/03/11 00:52:07;;;;;;;0.93;0.67;;;;;;;9.75;100.00;92686.13;5070382;28;20212;-55
2023/03/11 00:54:32;;;;;;;0.63;0.30;;;;;;;9.74;100.00;92679.47;5070207;28;20227;-56
2023/03/11 00:56:58;;;;;;;5.43;2.07;;;;;;;9.73;100.00;92667.75;5070541;28;20180;-55
2023/03/11 00:59:23;;;;;;;1.30;0.73;;;;;;;9.69;100.00;92647.03;5070596;28;20205;-58
2023/03/11 01:01:49;;;;;;;0.77;0.50;;;;;;;10.10;100.00;92648.16;5070480;28;20246;-56
2023/03/11 01:04:14;;;;;;;2.10;1.27;;;;;;;10.10;100.00;92635.47;5070227;28;20240;-55
2023/03/11 01:06:39;;;;;;;1.03;0.70;;;;;;;9.91;100.00;92630.94;5070227;28;20208;-55
2023/03/11 01:09:05;;;;;;;0.97;0.77;;;;;;;10.23;100.00;92631.53;5069890;28;20702;-57
2023/03/11 01:11:31;;;;;;;1.00;0.80;;;;;;;10.39;100.00;92631.31;5070198;28;20658;-53
2023/03/11 01:13:57;;;;;;;0.60;0.60;;;;;;;10.22;100.00;92632.50;5070247;28;20265;-54
2023/03/11 01:16:23;;;;;;;1.50;0.77;;;;;;;10.19;100.00;92630.31;5068853;28;20238;-53
2023/03/11 01:18:48;;;;;;;1.43;1.00;;;;;;;10.23;100.00;92627.25;5069939;28;20212;-53
2023/03/11 01:21:14;;;;;;;1.70;0.90;;;;;;;10.51;100.00;92637.50;5069967;28;20344;-54
2023/03/11 01:23:40;;;;;;;2.60;0.73;;;;;;;10.44;100.00;92637.47;5070186;28;20216;-56
2023/03/11 01:26:06;;;;;;;1.30;1.03;;;;;;;10.23;100.00;92612.00;5069919;28;20208;-58
2023/03/11 01:28:31;;;;;;;2.43;0.93;;;;;;;10.10;100.00;92599.94;5070310;28;20196;-53
2023/03/11 01:30:57;;;;;;;2.10;0.93;;;;;;;10.31;100.00;92611.13;5070002;28;20282;-56
2023/03/11 01:33:22;;;;;;;1.33;0.60;;;;;;;10.18;100.00;92599.06;5070005;28;20189;-53
2023/03/11 01:35:48;;;;;;;1.47;0.60;;;;;;;10.09;100.00;92595.81;5069706;28;20307;-56
2023/03/11 01:38:14;;;;;;;0.97;0.60;;;;;;;10.13;100.00;92594.53;5069758;28;20192;-56
2023/03/11 01:40:43;;;;;;;0.93;0.60;;;;;;;10.07;100.00;92576.66;5069779;28;20217;-58
2023/03/11 01:43:37;;;;;;;1.03;0.70;;;;;;;9.85;100.00;92569.94;5070054;28;20188;-58
2023/03/11 01:46:48;;;;;;;0.77;0.50;;;;;;;9.43;100.00;92546.97;5069596;28;20209;-55
2023/03/11 01:49:13;;;;;;;0.40;0.40;;;;;;;9.45;100.00;92548.38;5027598;28;20272;-55
2023/03/11 01:51:45;;;;;;;0.33;0.33;;;;;;;9.77;100.00;92549.75;5027868;28;20202;-58
2023/03/11 01:54:15;;;;;;;0.53;0.50;;;;;;;9.60;100.00;92553.41;5048732;28;20220;-54
2023/03/11 01:56:41;;;;;;;1.23;0.70;;;;;;;9.50;100.00;92555.41;5069591;28;20212;-53
2023/03/11 01:59:10;;;;;;;0.87;0.53;;;;;;;9.38;100.00;92572.81;5069677;28;20213;-53
2023/03/11 02:01:44;;;;;;;0.73;0.57;;;;;;;9.55;100.00;92578.53;5072181;28;20210;-53
2023/03/11 02:04:10;;;;;;;0.80;0.80;;;;;;;9.80;100.00;92592.50;5072713;28;20208;-53
2023/03/11 02:06:35;;;;;;;0.47;0.47;;;;;;;9.52;100.00;92604.22;5072729;28;20209;-56
2023/03/11 02:09:01;;;;;;;3.80;0.63;;;;;;;9.58;100.00;92606.06;5073163;28;20335;-55
2023/03/11 02:11:29;;;;;;;1.23;1.13;;;;;;;9.77;100.00;92603.81;5072788;28;20189;-54
2023/03/11 02:14:01;;;;;;;2.00;1.27;;;;;;;10.02;100.00;92596.69;5072799;28;20293;-54
2023/03/11 02:16:26;;;;;;;1.57;1.47;;;;;;;9.79;100.00;92601.88;5072815;28;20229;-55
2023/03/11 02:18:52;;;;;;;2.10;1.50;;;;;;;9.77;100.00;92613.16;5073039;28;20208;-57
2023/03/11 02:21:30;;;;;;;1.97;1.50;;;;;;;10.04;100.00;92630.28;5072950;28;20663;-57
2023/03/11 02:24:18;;;;;;;2.70;1.70;;;;;;;9.99;100.00;92623.22;5073102;28;20216;-57
2023/03/11 02:26:56;;;;;;;2.53;1.77;;;;;;;10.09;100.00;92635.63;5072445;28;20675;-55
2023/03/11 02:29:23;;;;;;;3.63;2.50;;;;;;;10.12;100.00;92625.16;5072385;28;20205;-56
2023/03/11 02:31:49;;;;;;;4.67;2.97;;;;;;;10.06;100.00;92618.22;5072330;28;20785;-56
2023/03/11 02:34:27;;;;;;;5.83;3.07;;;;;;;10.06;100.00;92626.63;5072611;28;20727;-53
2023/03/11 02:36:53;;;;;;;4.73;3.27;;;;;;;10.03;100.00;92626.19;5072519;28;20211;-53
2023/03/11 02:39:33;;;;;;;5.23;3.57;;;;;;;9.89;100.00;92614.28;5072470;28;20615;-54
2023/03/11 02:42:04;;;;;;;4.03;3.20;;;;;;;9.82;100.00;92618.47;5072523;28;20245;-54
2023/03/11 02:44:30;;;;;;;7.27;3.83;;;;;;;9.98;100.00;92629.25;5071981;28;20270;-53
2023/03/11 02:46:56;;;;;;;4.43;3.40;;;;;;;9.99;100.00;92632.56;5072440;28;20181;-53
2023/03/11 02:49:22;;;;;;;5.63;4.37;;;;;;;9.82;100.00;92634.50;5072530;28;20288;-54
2023/03/11 02:51:47;;;;;;;5.50;3.73;;;;;;;9.74;100.00;92624.44;5072416;28;20200;-54
2023/03/11 02:54:13;;;;;;;7.83;3.77;;;;;;;9.69;100.00;92649.56;5072352;28;20212;-56
2023/03/11 02:56:38;;;;;;;4.43;3.37;;;;;;;9.68;100.00;92663.19;5072175;28;20196;-56
2023/03/11 02:59:04;;;;;;;3.77;3.47;;;;;;;9.63;100.00;92647.72;5072193;28;20315;-54
2023/03/11 03:01:30;;;;;;;3.93;3.50;;;;;;;9.76;100.00;92637.75;5072031;28;20185;-56
2023/03/11 03:03:56;;;;;;;4.03;3.60;;;;;;;9.72;100.00;92636.50;5072145;28;20578;-58
2023/03/11 03:06:21;;;;;;;3.00;2.30;;;;;;;9.70;100.00;92643.50;5071823;28;20216;-56
2023/03/11 03:08:47;;;;;;;3.97;3.00;;;;;;;9.66;100.00;92632.13;5071944;28;20208;-57
2023/03/11 03:11:13;;;;;;;3.90;2.67;;;;;;;9.72;100.00;92623.81;5071544;28;20254;-58
2023/03/11 03:13:38;;;;;;;2.70;2.30;;;;;;;9.71;100.00;92636.69;5053712;28;20200;-59
2023/03/11 03:16:04;;;;;;;4.17;2.77;;;;;;;9.75;100.00;92638.72;5071779;28;20282;-54
2023/03/11 03:18:29;;;;;;;5.60;3.00;;;;;;;9.74;100.00;92643.94;5071510;28;20251;-53
2023/03/11 03:20:55;;;;;;;4.37;3.20;;;;;;;9.91;100.00;92640.28;5071952;28;20204;-54
2023/03/11 03:23:20;;;;;;;4.80;2.60;;;;;;;9.93;100.00;92634.06;5071857;28;20201;-54
2023/03/11 03:25:46;;;;;;;2.10;1.90;;;;;;;9.87;100.00;92639.84;5071587;28;20209;-54
2023/03/11 03:28:12;;;;;;;2.53;1.93;;;;;;;9.88;100.00;92636.34;5071696;28;20246;-55
2023/03/11 03:30:38;;;;;;;3.00;1.97;;;;;;;9.60;100.00;92619.34;5071452;28;20243;-55
2023/03/11 03:33:04;;;;;;;2.03;1.83;;;;;;;9.67;100.00;92627.84;5071538;28;20207;-56
2023/03/11 03:35:31;;;;;;;3.07;1.87;;;;;;;9.72;100.00;92635.72;5071483;28;20265;-55
2023/03/11 03:37:57;;;;;;;2.47;2.27;;;;;;;9.57;100.00;92638.25;5071622;28;20263;-58
2023/03/11 03:40:24;;;;;;;1.80;1.57;;;;;;;9.69;100.00;92636.88;5071474;28;20201;-57
2023/03/11 03:42:49;;;;;;;2.20;1.60;;;;;;;9.81;100.00;92638.00;5071367;28;20197;-59
2023/03/11 03:45:15;;;;;;;3.23;2.40;;;;;;;9.76;100.00;92640.28;5071329;28;20212;-58
2023/03/11 03:47:40;;;;;;;2.23;2.03;;;;;;;9.79;100.00;92622.19;5071426;28;20350;-58
2023/03/11 03:50:08;;;;;;;2.47;1.77;;;;;;;9.57;100.00;92623.03;5071807;28;20798;-58
2023/03/11 03:52:35;;;;;;;4.37;1.90;;;;;;;9.75;100.00;92632.84;5071259;28;20210;-59
2023/03/11 03:55:01;;;;;;;2.13;1.93;;;;;;;9.86;100.00;92617.97;5071152;28;20216;-58
2023/03/11 03:57:28;;;;;;;2.93;1.90;;;;;;;9.86;100.00;92605.28;5071138;28;20666;-59
2023/03/11 03:59:53;;;;;;;3.70;2.10;;;;;;;10.06;100.00;92631.69;5071441;28;20224;-54
2023/03/11 04:02:19;;;;;;;1.90;1.80;;;;;;;10.02;100.00;92639.81;5071120;28;20569;-54
2023/03/11 04:04:44;;;;;;;2.30;1.83;;;;;;;10.08;100.00;92622.16;5071192;28;20671;-58
2023/03/11 04:07:10;;;;;;;2.67;2.47;;;;;;;10.17;100.00;92622.09;5071089;28;20231;-57
2023/03/11 04:09:40;;;;;;;3.63;2.50;;;;;;;9.98;100.00;92620.84;5071025;28;20221;-58
2023/03/11 04:12:06;;;;;;;3.83;2.43;;;;;;;9.86;100.00;92634.94;5070915;28;20193;-58
2023/03/11 04:14:32;;;;;;;3.73;2.57;;;;;;;10.06;100.00;92626.63;5071307;28;20224;-57
2023/03/11 04:16:57;;;;;;;2.20;2.00;;;;;;;10.18;100.00;92634.59;5071062;28;20216;-56
2023/03/11 04:19:23;;;;;;;3.70;3.23;;;;;;;10.19;100.00;92632.84;5070696;28;20235;-54
2023/03/11 04:21:50;;;;;;;4.43;3.30;;;;;;;10.10;100.00;92634.69;5070832;28;20230;-56
2023/03/11 04:24:16;;;;;;;4.97;3.50;;;;;;;10.18;100.00;92633.81;5070202;28;20213;-54
2023/03/11 04:26:42;;;;;;;4.27;3.17;;;;;;;9.93;100.00;92623.13;5070695;28;20667;-55
2023/03/11 04:29:07;;;;;;;4.80;3.37;;;;;;;10.12;100.00;92641.16;5070601;28;20239;-54
2023/03/11 04:31:33;;;;;;;3.47;3.17;;;;;;;10.07;100.00;92635.03;5070617;28;20220;-54
2023/03/11 04:33:58;;;;;;;4.00;3.57;;;;;;;10.12;100.00;92641.16;5070847;28;20220;-54
2023/03/11 04:36:24;;;;;;;5.30;3.77;;;;;;;10.26;100.00;92646.41;5070515;28;20652;-53
2023/03/11 04:38:49;;;;;;;4.43;3.27;;;;;;;10.41;100.00;92657.31;5069938;28;20215;-53
2023/03/11 04:41:15;;;;;;;4.17;3.30;;;;;;;10.26;100.00;92643.88;5070564;28;20678;-54
2023/03/11 04:43:40;;;;;;;7.43;3.10;;;;;;;10.05;100.00;92614.91;5079501;22;20266;-56
2023/03/11 04:46:06;;;;;;;3.70;3.40;;;;;;;10.19;100.00;92625.22;5089464;28;20273;-54
2023/03/11 04:48:31;;;;;;;2.77;2.10;;;;;;;10.14;100.00;92663.84;5090765;28;20662;-54
2023/03/11 04:50:56;;;;;;;2.37;2.03;;;;;;;10.18;100.00;92632.06;5090873;28;20187;-53
2023/03/11 04:53:23;;;;;;;2.77;1.93;;;;;;;10.20;100.00;92654.75;5090622;28;20192;-53
2023/03/11 04:55:49;;;;;;;2.90;2.70;;;;;;;10.33;100.00;92642.19;5090445;28;20742;-54
2023/03/11 04:58:14;;;;;;;2.13;1.93;;;;;;;10.20;100.00;92640.28;5090130;28;20195;-54
2023/03/11 05:00:40;;;;;;;1.20;1.10;;;;;;;10.19;100.00;92684.41;5090582;28;20320;-55
2023/03/11 05:03:06;;;;;;;2.13;1.60;;;;;;;10.27;100.00;92701.31;5090506;28;20237;-53
2023/03/11 05:05:31;;;;;;;1.70;1.03;;;;;;;10.30;100.00;92767.00;5090422;28;20250;-55
2023/03/11 05:07:56;;;;;;;1.80;1.00;;;;;;;10.51;100.00;92800.09;5090384;28;20194;-55
2023/03/11 05:10:22;;;;;;;1.23;1.13;;;;;;;10.55;100.00;92761.47;5090282;28;20781;-56
2023/03/11 05:12:48;;;;;;;1.20;1.10;;;;;;;10.64;100.00;92739.28;5090539;28;20196;-62
2023/03/11 05:15:14;;;;;;;1.67;1.03;;;;;;;10.59;100.00;92812.69;5072130;28;20216;-56
2023/03/11 05:17:39;;;;;;;1.83;1.07;;;;;;;10.57;100.00;92756.19;5090379;28;20265;-56
2023/03/11 05:20:07;;;;;;;2.90;0.73;;;;;;;10.56;100.00;92853.72;5090360;28;20700;-53
2023/03/11 05:22:33;;;;;;;0.87;0.80;;;;;;;10.69;100.00;92836.09;5090156;28;20196;-55
2023/03/11 05:24:58;;;;;;;0.90;0.70;;;;;;;10.71;100.00;92783.34;5090417;28;20255;-54
2023/03/11 05:27:24;;;;;;;1.17;1.00;;;;;;;10.84;100.00;92791.16;5090250;28;20275;-53
2023/03/11 05:29:49;;;;;;;0.77;0.50;;;;;;;10.85;100.00;92879.13;5090280;28;20240;-54
2023/03/11 05:32:15;;;;;;;0.60;0.60;;;;;;;10.95;100.00;92927.94;5090206;28;20662;-53
2023/03/11 05:34:40;;;;;;;2.00;0.70;;;;;;;10.93;100.00;92879.84;5073112;28;20280;-54
2023/03/11 05:37:07;;;;;;;0.93;0.67;;;;;;;11.02;100.00;92844.94;5093859;28;20191;-57
2023/03/11 05:39:33;;;;;;;0.30;0.30;;;;;;;10.91;100.00;93001.22;5093453;28;20208;-54
2023/03/11 05:41:58;;;;;;;0.50;0.50;;;;;;;10.88;100.00;92955.84;5093347;28;20196;-54
2023/03/11 05:44:24;;;;;;;0.30;0.30;;;;;;;10.92;100.00;92992.66;5093689;28;20741;-54
2023/03/11 05:46:49;;;;;;;0.20;0.20;;;;;;;11.04;100.00;93005.72;5093175;28;20216;-54
2023/03/11 05:49:14;;;;;;;0.57;0.50;;;;;;;10.99;100.00;92941.88;5093594;28;20204;-57
2023/03/11 05:51:40;;;;;;;1.73;0.57;;;;;;;11.04;100.00;92966.78;5093398;28;20237;-57
2023/03/11 05:54:13;;;;;;;1.00;0.80;;;;;;;11.16;100.00;92989.09;5093355;28;20212;-56
2023/03/11 05:56:42;;;;;;;0.37;0.37;;;;;;;11.10;100.00;92999.94;5093287;28;20280;-57
2023/03/11 05:59:08;;;;;;;0.77;0.50;;;;;;;11.06;100.00;92992.84;5093250;28;20220;-56
2023/03/11 06:01:34;;;;;;;0.70;0.40;;;;;;;11.06;100.00;92975.03;5093185;28;20194;-57
2023/03/11 06:04:00;;;;;;;0.93;0.70;;;;;;;11.13;100.00;92986.13;5093356;28;20239;-57
2023/03/11 06:06:26;;;;;;;0.67;0.40;;;;;;;11.06;100.00;92968.22;5074770;28;20304;-57
2023/03/11 06:08:51;;;;;;;1.40;1.00;;;;;;;10.94;100.00;92936.56;5093461;28;20216;-57
2023/03/11 06:11:17;;;;;;;1.00;0.60;;;;;;;11.10;100.00;92890.63;5093090;28;20184;-55
2023/03/11 06:13:42;;;;;;;5.23;2.70;;;;;;;11.08;100.00;92889.22;5075005;28;20192;-57
2023/03/11 06:16:08;;;;;;;1.63;1.33;;;;;;;11.08;100.00;92902.72;5093052;28;20196;-57
2023/03/11 06:18:33;;;;;;;1.43;1.10;;;;;;;11.07;100.00;92897.81;5074636;28;20231;-55
2023/03/11 06:21:00;;;;;;;1.00;0.63;;;;;;;10.90;100.00;92885.28;5092800;28;20185;-54
2023/03/11 06:23:27;;;;;;;0.53;0.43;;;;;;;10.87;100.00;92862.75;5092714;28;20203;-54
2023/03/11 06:26:01;;;;;;;1.83;1.27;;;;;;;10.85;100.00;92869.75;5092747;28;20220;-54
2023/03/11 06:28:27;;;;;;;1.03;0.67;;;;;;;10.86;100.00;92853.56;5093011;28;20637;-54
2023/03/11 06:30:55;;;;;;;1.20;0.90;;;;;;;10.79;100.00;92834.06;5092976;28;20210;-53
2023/03/11 06:33:22;;;;;;;0.63;0.60;;;;;;;10.77;100.00;92846.16;5092618;28;20253;-54
2023/03/11 06:35:58;;;;;;;0.53;0.40;;;;;;;10.74;100.00;92849.88;5091859;28;20291;-55
2023/03/11 06:38:30;;;;;;;2.30;0.73;;;;;;;10.77;100.00;92846.16;5092358;28;20577;-54
2023/03/11 06:41:04;;;;;;;2.00;0.43;;;;;;;10.84;100.00;92869.94;5092496;28;20196;-53
2023/03/11 06:43:31;;;;;;;2.13;1.20;;;;;;;10.88;100.00;92848.28;5092235;28;20203;-53
2023/03/11 06:45:57;;;;;;;3.60;2.40;;;;;;;10.83;100.00;92860.72;5091647;28;20239;-53
2023/03/11 06:48:23;;;;;;;1.63;1.47;;;;;;;10.94;100.00;92867.91;5092967;28;20598;-53
2023/03/11 06:50:56;;;;;;;0.90;0.80;;;;;;;11.02;100.00;92887.38;5092341;28;20208;-58
2023/03/11 06:53:22;;;;;;;1.53;1.40;;;;;;;10.98;100.00;92889.47;5091483;28;20268;-57
2023/03/11 06:56:06;;;;;;;2.53;1.20;;;;;;;10.97;100.00;92893.78;5091677;28;20759;-57
2023/03/11 06:58:34;;;;;;;2.07;0.87;;;;;;;10.94;100.00;92914.47;5091983;28;20229;-57
2023/03/11 07:01:01;;;;;;;1.17;0.80;;;;;;;11.06;100.00;92914.03;5091949;28;20191;-57
2023/03/11 07:03:27;;;;;;;1.17;0.60;;;;;;;10.94;100.00;92932.25;5091959;28;20326;-57
2023/03/11 07:05:52;;;;;;;1.20;0.63;;;;;;;11.07;100.00;92943.59;5091705;28;20288;-56
2023/03/11 07:08:18;;;;;;;1.83;0.53;;;;;;;11.06;100.00;92980.91;5091837;28;20252;-56
2023/03/11 07:10:43;;;;;;;0.40;0.40;;;;;;;11.03;100.00;92945.66;5092153;28;20216;-58
2023/03/11 07:13:09;;;;;;;1.80;0.60;;;;;;;10.99;100.00;92959.69;5091989;28;20203;-57
2023/03/11 07:15:35;;;;;;;1.83;0.50;;;;;;;10.88;100.00;92920.25;5092052;28;20216;-56
2023/03/11 07:18:00;;;;;;;0.60;0.60;;;;;;;10.90;100.00;92889.56;5091975;28;20563;-57
2023/03/11 07:20:26;;;;;;;10.73;1.10;;;;;;;11.01;100.00;92886.56;5073576;28;20212;-57
2023/03/11 07:22:52;;;;;;;1.37;0.90;;;;;;;11.05;100.00;92882.72;5091694;28;20301;-57
2023/03/11 07:25:17;;;;;;;0.83;0.80;;;;;;;11.14;100.00;92881.66;5091264;28;20678;-55
2023/03/11 07:27:43;;;;;;;1.17;0.70;;;;;;;11.13;100.00;92877.53;5090620;28;20237;-57
2023/03/11 07:30:09;;;;;;;1.17;0.60;;;;;;;11.16;100.00;92970.50;5090884;28;20226;-59
2023/03/11 07:32:35;;;;;;;3.93;1.97;;;;;;;11.15;100.00;92872.28;5054368;28;20197;-55
2023/03/11 07:35:00;;;;;;;3.37;1.10;;;;;;;11.23;100.00;92930.69;5053275;28;20227;-57
2023/03/11 07:37:26;;;;;;;3.50;1.60;;;;;;;11.36;100.00;92969.00;5071489;28;20177;-53
2023/03/11 07:39:51;;;;;;;1.53;1.10;;;;;;;11.44;100.00;92959.53;5071213;28;20216;-55
2023/03/11 07:42:16;;;;;;;2.93;1.10;;;;;;;11.48;100.00;92973.47;5071372;28;20195;-54
2023/03/11 07:44:42;;;;;;;2.30;1.33;;;;;;;11.52;100.00;92949.25;5071330;28;20345;-55
2023/03/11 07:47:07;;;;;;;1.60;1.27;;;;;;;11.52;100.00;92936.53;5071242;28;20279;-54
2023/03/11 07:49:33;;;;;;;1.27;1.07;;;;;;;11.53;100.00;92950.06;5053409;28;20212;-55
2023/03/11 07:51:58;;;;;;;2.20;1.60;;;;;;;11.67;100.00;92972.97;5071163;28;20647;-54
2023/03/11 07:54:24;;;;;;;3.93;0.97;;;;;;;12.50;100.00;93070.09;5053081;28;20212;-57
2023/03/11 07:56:49;;;;;;;2.07;1.10;;;;;;;12.24;100.00;93056.28;5071145;28;20254;-55
2023/03/11 07:59:15;;;;;;;0.60;0.60;;;;;;;12.06;100.00;93074.47;5070304;28;20212;-55
2023/03/11 08:01:45;;;;;;;1.07;0.67;;;;;;;12.03;100.00;93043.50;5070932;28;20191;-52
2023/03/11 08:04:12;;;;;;;2.10;0.80;;;;;;;12.28;100.00;93072.81;5071289;28;20209;-54
2023/03/11 08:06:37;;;;;;;2.60;1.30;;;;;;;12.34;100.00;93060.13;5070573;28;20705;-54
2023/03/11 08:09:06;;;;;;;1.57;0.80;;;;;;;12.36;100.00;93080.34;5070992;28;20224;-59
2023/03/11 08:11:32;;;;;;;0.90;0.90;;;;;;;12.49;100.00;93052.44;5071065;28;20258;-58
2023/03/11 08:13:58;;;;;;;2.00;0.87;;;;;;;12.66;100.00;93056.34;5070918;28;20718;-54
2023/03/11 08:16:24;;;;;;;0.93;0.90;;;;;;;12.66;100.00;93062.22;5052823;28;20274;-57
2023/03/11 08:18:51;;;;;;;0.67;0.60;;;;;;;12.72;100.00;93055.63;5070795;28;20269;-58
2023/03/11 08:21:30;;;;;;;1.93;1.40;;;;;;;12.86;100.00;93057.31;5070795;28;20232;-58
2023/03/11 08:23:57;;;;;;;0.93;0.73;;;;;;;12.92;100.00;93115.25;5071002;28;20216;-58
2023/03/11 08:26:23;;;;;;;2.10;0.93;;;;;;;12.88;100.00;93126.78;5070579;28;20268;-53
2023/03/11 08:28:49;;;;;;;1.60;0.60;;;;;;;12.84;98.09;93176.56;5070745;28;20216;-54
2023/03/11 08:31:27;;;;;;;2.43;0.77;;;;;;;12.82;98.47;93152.22;5070424;28;20192;-53
2023/03/11 08:33:55;;;;;;;2.90;0.90;;;;;;;12.99;98.07;93153.59;5070391;28;20240;-55
2023/03/11 08:36:20;;;;;;;4.33;1.37;;;;;;;13.07;96.98;93166.25;5070637;28;20188;-57
2023/03/11 08:38:46;;;;;;;3.07;1.50;;;;;;;13.39;97.02;93161.44;5070584;28;20220;-58
2023/03/11 08:41:11;;;;;;;0.83;0.83;;;;;;;13.30;100.00;93011.97;5070572;28;20251;-56
2023/03/11 08:43:37;;;;;;;0.60;0.60;;;;;;;13.55;79.58;93154.50;5070394;28;20212;-58
2023/03/11 08:46:07;;;;;;;5.73;2.73;;;;;;;14.43;90.42;92865.78;5070205;28;20213;-57
2023/03/11 08:48:33;;;;;;;7.97;3.13;;;;;;;15.61;100.00;92643.53;5070373;28;20714;-54
2023/03/11 08:50:59;;;;;;;2.73;1.23;;;;;;;15.69;74.30;93124.88;5070296;28;20210;-54
2023/03/11 08:53:25;;;;;;;3.38;1.00;;;;;;;15.70;65.05;93328.84;5070780;28;20275;-53
2023/03/11 08:55:51;;;;;;;2.80;1.07;;;;;;;15.21;66.42;93271.94;5070075;28;20678;-54
2023/03/11 08:58:17;;;;;;;1.53;0.83;;;;;;;14.57;66.27;93244.06;5070322;28;20220;-53
2023/03/11 09:00:43;;;;;;;2.30;0.60;;;;;;;14.37;66.78;93189.47;5070119;28;20321;-57
2023/03/11 09:03:08;;;;;;;0.70;0.60;;;;;;;14.55;66.53;93194.09;5070432;28;22420;-54
2023/03/11 09:05:34;;;;;;;1.63;0.83;;;;;;;15.04;65.27;93236.44;5069830;28;20299;-54
2023/03/11 09:08:01;;;;;;;1.63;1.00;;;;;;;14.69;66.54;93193.97;5069965;28;20180;-54
2023/03/11 09:10:26;;;;;;;1.52;0.70;;;;;;;14.76;65.56;93201.69;5075087;28;20216;-55
2023/03/11 09:12:52;;;;;;;0.70;0.55;;;;;;;14.75;65.26;93212.88;5076666;28;20318;-53
2023/03/11 09:15:17;;;;;;;1.73;0.70;;;;;;;14.87;65.34;93209.59;5058571;28;20288;-56
2023/03/11 09:17:43;;;;;;;3.55;0.70;;;;;;;14.86;65.77;93174.75;5058493;28;20200;-57
2023/03/11 09:20:11;;;;;;;2.40;0.90;;;;;;;14.54;65.95;93157.53;5076576;28;20226;-57
2023/03/11 09:22:37;;;;;;;1.53;0.70;;;;;;;13.91;68.49;93086.19;5076720;28;20196;-57
2023/03/11 09:25:02;;;;;;;1.57;0.90;;;;;;;14.16;69.19;93077.06;5076376;28;20231;-57
2023/03/11 09:27:28;;;;;;;0.67;0.67;;;;;;;14.19;70.22;93043.47;5067517;28;20214;-57
2023/03/11 09:29:53;;;;;;;1.48;0.60;;;;;;;14.77;67.55;93118.81;5117881;28;20196;-57
2023/03/11 09:32:19;;;;;;;1.77;1.10;;;;;;;14.51;69.14;93054.81;5100962;28;20271;-57
2023/03/11 09:34:44;;;;;;;3.22;0.90;;;;;;;14.86;67.70;93099.78;5096991;28;20204;-55
2023/03/11 09:37:09;;;;;;;1.00;0.80;;;;;;;15.56;67.94;93114.63;5096969;28;20191;-54
2023/03/11 09:39:35;;;;;;;3.27;1.20;;;;;;;16.05;66.29;93160.31;5096719;28;20227;-54
2023/03/11 09:42:23;;;;;;;4.60;1.43;;;;;;;16.19;65.27;93179.84;5093576;28;20192;-55
2023/03/11 09:45:07;;;;;;;2.50;0.82;;;;;;;16.35;64.73;93181.97;5085102;28;20255;-53
2023/03/11 09:47:39;;;;;;;3.00;1.30;;;;;;;16.36;63.31;93217.66;5075637;28;20249;-53
2023/03/11 09:50:15;;;;;;;2.55;1.40;;;;;;;16.45;63.22;93213.91;5074735;28;20327;-54
2023/03/11 09:52:49;;;;;;;3.85;1.38;;;;;;;16.52;61.62;93255.75;5075641;28;20198;-53
2023/03/11 09:55:58;;;;;;;2.05;1.02;;;;;;;16.21;61.15;93263.28;5076379;28;20224;-54
2023/03/11 09:58:41;;;;;;;2.67;1.45;;;;;;;16.56;61.03;93259.50;5037366;28;20211;-57
2023/03/11 10:01:17;;;;;;;3.90;1.20;;;;;;;16.80;60.13;93270.94;5076354;28;20223;-57
2023/03/11 10:03:43;;;;;;;3.33;1.08;;;;;;;16.64;57.70;93272.13;5076473;28;20192;-56
2023/03/11 10:06:32;;;;;;;0.98;0.80;;;;;;;16.66;57.15;93226.50;5076261;28;20224;-56
2023/03/11 10:09:23;;;;;;;1.05;0.93;;;;;;;16.45;58.40;93174.66;5076617;28;20251;-54
2023/03/11 10:11:55;;;;;;;2.50;1.10;;;;;;;17.04;53.73;93284.88;5058311;28;20578;-54
2023/03/11 10:14:38;;;;;;;0.90;0.90;;;;;;;17.26;53.41;93251.00;5076554;28;20205;-55
2023/03/11 10:17:20;;;;;;;2.35;0.70;;;;;;;16.61;54.66;93216.09;5076303;28;20278;-55
2023/03/11 10:20:20;;;;;;;1.73;0.88;;;;;;;16.58;55.07;93190.81;5076874;28;20702;-57
2023/03/11 10:23:13;;;;;;;2.15;0.85;;;;;;;16.10;57.32;93122.06;5056561;28;20185;-56
2023/03/11 10:26:06;;;;;;;3.13;0.70;;;;;;;16.90;56.46;93142.16;5072815;28;20274;-58
2023/03/11 10:28:39;;;;;;;1.77;0.77;;;;;;;17.11;53.44;93222.22;5072791;28;20330;-58
2023/03/11 10:31:17;;;;;;;5.53;0.90;;;;;;;16.96;53.76;93198.59;5072881;28;20188;-57
2023/03/11 10:33:53;;;;;;;1.55;0.98;;;;;;;15.62;57.38;93096.69;5054829;28;20202;-54
2023/03/11 10:36:23;;;;;;;0.90;0.75;;;;;;;15.33;58.12;93068.91;5072728;28;20208;-57
2023/03/11 10:38:51;;;;;;;1.60;0.65;;;;;;;15.55;58.27;93064.41;5072720;28;20213;-58
2023/03/11 10:41:29;;;;;;;1.27;0.80;;;;;;;16.19;56.82;93106.28;5073006;28;20655;-55
2023/03/11 10:44:05;;;;;;;0.55;0.55;;;;;;;15.48;56.21;93107.16;5073580;28;20208;-54
2023/03/11 10:46:31;;;;;;;3.03;0.83;;;;;;;15.52;58.29;93051.97;5072582;28;20201;-56
2023/03/11 10:48:56;;;;;;;3.70;0.60;;;;;;;15.35;56.67;93089.19;5072812;28;20213;-54
2023/03/11 10:51:30;;;;;;;1.30;0.73;;;;;;;15.30;62.48;92943.06;5072716;28;20185;-58
2023/03/11 10:53:59;;;;;;;2.63;0.77;;;;;;;14.51;64.97;92891.16;5072613;28;20242;-57
2023/03/11 10:56:36;;;;;;;3.15;1.00;;;;;;;14.32;65.99;92883.28;5072532;28;20212;-57
2023/03/11 10:59:04;;;;;;;3.85;0.70;;;;;;;14.41;66.34;92885.66;5054586;28;20575;-58
2023/03/11 11:01:30;;;;;;;0.88;0.70;;;;;;;14.04;66.21;92879.28;5072420;28;20315;-57
2023/03/11 11:03:58;;;;;;;4.88;0.82;;;;;;;13.96;68.40;92834.28;5072445;28;20205;-58
2023/03/11 11:06:28;;;;;;;1.27;0.60;;;;;;;13.74;68.44;92839.75;5072584;28;20574;-57
2023/03/11 11:09:22;;;;;;;2.47;0.50;;;;;;;13.54;70.01;92811.63;5054509;28;20248;-57
2023/03/11 11:12:13;;;;;;;3.93;0.77;;;;;;;13.77;70.03;92812.06;5072613;28;20269;-56
2023/03/11 11:14:41;;;;;;;4.57;1.23;;;;;;;13.98;68.63;92857.06;5072599;28;20223;-54
2023/03/11 11:17:17;;;;;;;5.20;0.90;;;;;;;14.95;64.13;92974.00;5072762;28;20713;-55
2023/03/11 11:19:47;;;;;;;2.10;1.07;;;;;;;15.52;63.76;92967.47;5072915;28;20208;-54
2023/03/11 11:22:16;;;;;;;1.83;1.07;;;;;;;15.47;65.67;92908.41;5072442;28;20193;-55
2023/03/11 11:24:46;;;;;;;1.37;0.80;;;;;;;15.27;62.03;92999.78;5072762;28;20228;-56
2023/03/11 11:27:21;;;;;;;0.93;0.80;;;;;;;15.13;63.80;92937.56;5072327;28;20189;-56
2023/03/11 11:30:09;;;;;;;1.52;1.02;;;;;;;15.40;66.27;92869.19;5072635;28;20216;-59
2023/03/11 11:32:36;;;;;;;1.35;0.98;;;;;;;15.30;65.16;92914.91;5054125;28;20188;-59
2023/03/11 11:35:04;;;;;;;1.60;1.08;;;;;;;14.78;66.64;92860.28;5072388;28;20274;-57